Saturday, September 22, 2018, 10:35 PM EDT
Back to Local

KMMK, Meriden Markham Municipal Airport

Location: Meriden, CT, United States Lat: 41.517
Local Time: 10:35 PM EDT ( 2:35 GMT) Lon: -72.833
Time Zone: US/Eastern Elev: 101 ft

Show me the last for .
Show Decoded

2018-09-22 21:53 METAR KMMK 230153Z AUTO 00000KT 10SM CLR 16/10 A3022 RMK AO2 SLP232 T01610100 =
2018-09-22 20:53 METAR KMMK 230053Z AUTO 34005KT 10SM CLR 17/10 A3020 RMK AO2 SLP226 T01670100 =
2018-09-22 19:53 METAR KMMK 222353Z AUTO 34003KT 10SM CLR 17/11 A3020 RMK AO2 SLP224 T01720106
                 10217 20167 53019 =
2018-09-22 18:53 METAR KMMK 222253Z AUTO 00000KT 10SM CLR 18/12 A3018 RMK AO2 SLP217 T01780117 =
2018-09-22 17:53 METAR KMMK 222153Z AUTO 36005KT 10SM CLR 19/11 A3016 RMK AO2 SLP210 T01940106 =
2018-09-22 16:53 METAR KMMK 222053Z AUTO 01003KT 10SM CLR 20/11 A3014 RMK AO2 SLP205 T02000111
                 51003 =
2018-09-22 15:53 METAR KMMK 221953Z AUTO VRB05KT 10SM CLR 21/11 A3014 RMK AO2 SLP204 T02060106 =
2018-09-22 14:53 METAR KMMK 221853Z AUTO 36006KT 10SM CLR 21/11 A3013 RMK AO2 SLP203 T02060106 =
2018-09-22 13:53 METAR KMMK 221753Z AUTO 35010KT 10SM FEW041 21/10 A3013 RMK AO2 SLP202 T02110100
                 10222 20189 53006 =
2018-09-22 12:53 METAR KMMK 221653Z AUTO 36007KT 10SM FEW039 21/11 A3012 RMK AO2 SLP199 T02060106
                 =
2018-09-22 11:53 METAR KMMK 221553Z AUTO 35012G18KT 10SM FEW038 21/09 A3012 RMK AO2 SLP199
                 T02060094 =
2018-09-22 10:53 METAR KMMK 221453Z AUTO 33010G19KT 10SM CLR 19/09 A3011 RMK AO2 SLP196 T01890089
                 51029 =
2018-09-22 09:53 METAR KMMK 221353Z AUTO 32017G21KT 10SM CLR 19/09 A3011 RMK AO2 SLP194 T01890094
                 =
2018-09-22 08:53 METAR KMMK 221253Z AUTO 35008G20KT 10SM SCT032 21/13 A3007 RMK AO2 SLP182
                 T02060128 =
2018-09-22 07:53 METAR KMMK 221153Z AUTO 34007KT 10SM CLR 21/14 A3003 RMK AO2 SLP167 60000
                 T02060139 10222 20194 53038 =
2018-09-22 06:53 METAR KMMK 221053Z AUTO 35011G21KT 10SM FEW020 21/14 A2999 RMK AO2 SLP155
                 T02060144 =
2018-09-22 05:53 METAR KMMK 220953Z AUTO 26004KT 10SM FEW016 20/19 A2994 RMK AO2 SLP137 T02000189
                 =
2018-09-22 05:27 METAR KMMK 220927Z AUTO 23003KT 10SM SCT018 21/19 A2993 RMK AO2 T02110194 =
2018-09-22 05:08 METAR KMMK 220908Z AUTO 23004KT 10SM BKN019 21/19 A2993 RMK AO2 T02110194 =
2018-09-22 04:53 METAR KMMK 220853Z AUTO 24004KT 10SM SCT018 21/19 A2992 RMK AO2 SLP130 60000
                 T02110194 53003 =
2018-09-22 04:49 METAR KMMK 220849Z AUTO 23006KT 10SM SCT018 21/19 A2992 RMK AO2 =
2018-09-22 04:03 METAR KMMK 220803Z AUTO 00000KT 10SM BKN015 BKN020 OVC028 21/19 A2991 RMK AO2
                 T02110194 =
2018-09-22 03:53 METAR KMMK 220753Z AUTO 23006KT 10SM BKN013 BKN021 OVC028 22/19 A2991 RMK AO2
                 RAE04B30E52 SLP127 P0000 T02170194 =
2018-09-22 03:33 METAR KMMK 220733Z AUTO 20006KT 9SM -RA OVC014 22/19 A2990 RMK AO2 RAE04B30
                 P0000 T02170194 =
2018-09-22 02:53 METAR KMMK 220653Z AUTO 19007KT 10SM -RA OVC017 22/19 A2991 RMK AO2 RAB43 SLP127
                 P0000 T02220189 =
2018-09-22 01:53 METAR KMMK 220553Z AUTO 19007KT 10SM OVC020 22/18 A2993 RMK AO2 SLP133 T02220183
                 10222 20206 58016 =
2018-09-22 00:53 METAR KMMK 220453Z AUTO 18008G16KT 10SM OVC026 22/18 A2994 RMK AO2 SLP137
                 T02170183 402220167 =
2018-09-21 23:53 METAR KMMK 220353Z AUTO 19008KT 170V230 10SM OVC029 22/18 A2997 RMK AO2 SLP148
                 T02170178 =
2018-09-21 23:50 METAR KMMK 220350Z AUTO 19009G15KT 10SM OVC029 22/18 A2997 RMK AO2 =
2018-09-21 22:53 METAR KMMK 220253Z AUTO 20010KT 10SM OVC035 22/18 A2999 RMK AO2 SLP154 T02170178
                 58004 =

Support USWX by starting your Amazon purchase here.